createdAt,value
2022-09-21T00:02:15.538Z,7.61
2022-09-21T00:10:40.591Z,7.54
2022-09-21T00:19:04.741Z,7.42
2022-09-21T00:27:30.219Z,7.33
2022-09-21T00:35:53.902Z,7.31
2022-09-21T00:44:16.699Z,7.23
2022-09-21T00:52:52.209Z,7.26
2022-09-21T01:01:18.805Z,7.47
2022-09-21T01:09:43.935Z,7.74
2022-09-21T01:18:15.821Z,7.96
2022-09-21T01:26:57.849Z,8.13
2022-09-21T01:35:32.447Z,8.26
2022-09-21T01:44:01.744Z,8.30
2022-09-21T01:52:52.926Z,8.37
2022-09-21T02:01:20.306Z,8.40
2022-09-21T02:09:43.346Z,8.41
2022-09-21T02:18:14.214Z,8.31
2022-09-21T02:26:49.633Z,8.30
2022-09-21T02:35:22.413Z,8.39
2022-09-21T02:44:04.362Z,8.50
2022-09-21T02:52:30.137Z,8.55
2022-09-21T03:00:56.767Z,8.53
2022-09-21T03:09:25.053Z,8.51
2022-09-21T03:17:47.800Z,8.58
2022-09-21T03:26:10.606Z,8.69
2022-09-21T03:34:34.353Z,8.79
2022-09-21T03:42:57.262Z,8.83
2022-09-21T03:51:20.707Z,8.88
2022-09-21T03:59:44.031Z,8.92
2022-09-21T04:08:07.762Z,8.97
2022-09-21T04:16:31.718Z,9.03
2022-09-21T04:24:54.497Z,9.08
2022-09-21T04:33:17.311Z,9.11
2022-09-21T04:41:40.141Z,9.17
2022-09-21T04:50:04.203Z,9.24
2022-09-21T04:58:27.981Z,9.24
2022-09-21T05:06:50.772Z,9.30
2022-09-21T05:15:13.673Z,9.35
2022-09-21T05:23:36.514Z,9.38
2022-09-21T05:32:16.602Z,9.42
2022-09-21T05:40:39.834Z,9.45
2022-09-21T05:49:05.852Z,9.49
2022-09-21T05:57:55.594Z,9.51
2022-09-21T06:06:19.604Z,9.57
2022-09-21T06:14:42.372Z,9.64
2022-09-21T06:23:08.445Z,9.66
2022-09-21T06:31:31.375Z,9.72
2022-09-21T06:39:54.207Z,9.84
2022-09-21T06:48:17.056Z,9.91
2022-09-21T06:56:42.805Z,10.01
2022-09-21T07:05:06.091Z,10.16
2022-09-21T07:13:29.326Z,10.23
2022-09-21T07:21:56.281Z,10.28
2022-09-21T07:30:19.050Z,10.36
2022-09-21T07:38:44.410Z,10.52
2022-09-21T07:47:08.347Z,10.82
2022-09-21T07:55:31.944Z,11.07
2022-09-21T08:03:57.947Z,11.03
2022-09-21T08:12:20.795Z,11.00
2022-09-21T08:20:44.349Z,11.01
2022-09-21T08:29:07.823Z,11.04
2022-09-21T08:37:32.162Z,11.12
2022-09-21T08:45:57.582Z,11.31
2022-09-21T08:54:53.897Z,11.42
2022-09-21T09:03:22.901Z,11.51
2022-09-21T09:12:11.015Z,11.51
2022-09-21T09:20:43.447Z,11.54
2022-09-21T09:29:21.089Z,11.64
2022-09-21T09:37:48.618Z,11.63
2022-09-21T09:46:20.696Z,11.70
2022-09-21T09:54:44.291Z,11.82
2022-09-21T10:03:18.490Z,11.93
2022-09-21T10:11:41.306Z,12.11
2022-09-21T10:20:08.063Z,12.30
2022-09-21T10:28:32.063Z,12.49
2022-09-21T10:36:57.594Z,12.68
2022-09-21T10:45:27.958Z,12.76
2022-09-21T10:53:53.846Z,12.83
2022-09-21T11:02:32.082Z,12.93
2022-09-21T11:11:10.259Z,13.12
2022-09-21T11:19:48.644Z,13.15
2022-09-21T11:28:34.495Z,13.31
2022-09-21T11:37:28.260Z,13.54
2022-09-21T11:46:23.357Z,13.46
2022-09-21T11:55:18.982Z,13.50
2022-09-21T12:03:53.450Z,13.98
2022-09-21T12:12:25.880Z,14.32
2022-09-21T12:21:02.353Z,14.40
2022-09-21T12:29:38.098Z,14.37
2022-09-21T12:38:23.589Z,14.51
2022-09-21T12:47:09.774Z,14.58
2022-09-21T12:56:01.393Z,14.61
2022-09-21T13:04:38.713Z,14.47
2022-09-21T13:13:08.389Z,14.36
2022-09-21T13:21:34.844Z,14.16
2022-09-21T13:30:32.668Z,14.08
2022-09-21T13:39:17.506Z,14.10
2022-09-21T13:47:46.172Z,14.18
2022-09-21T13:56:18.811Z,14.27
2022-09-21T14:04:49.111Z,14.20
2022-09-21T14:13:24.556Z,14.26
2022-09-21T14:22:06.413Z,14.37
2022-09-21T14:30:35.085Z,14.27
2022-09-21T14:39:03.373Z,14.18
2022-09-21T14:47:41.204Z,14.07
2022-09-21T14:56:04.088Z,13.89
2022-09-21T15:05:12.576Z,13.78
2022-09-21T15:14:16.806Z,13.70
2022-09-21T15:22:46.587Z,13.66
2022-09-21T15:31:09.689Z,13.52
2022-09-21T15:39:32.666Z,13.32
2022-09-21T15:47:58.057Z,13.13
2022-09-21T15:56:28.843Z,12.88
2022-09-21T16:04:53.027Z,12.61
2022-09-21T16:13:44.392Z,12.47
2022-09-21T16:22:15.271Z,12.24
2022-09-21T16:30:47.366Z,11.99
2022-09-21T16:39:15.189Z,11.69
2022-09-21T16:47:39.630Z,11.40
2022-09-21T16:56:03.532Z,11.16
2022-09-21T17:04:29.952Z,11.08
2022-09-21T17:12:58.273Z,10.99
2022-09-21T17:21:21.522Z,10.97
2022-09-21T17:29:49.668Z,10.95
2022-09-21T17:38:14.723Z,10.79
2022-09-21T17:47:00.153Z,10.68
2022-09-21T17:55:23.932Z,10.64
2022-09-21T18:03:47.538Z,10.54
2022-09-21T18:12:38.112Z,10.44
2022-09-21T18:21:43.941Z,10.36
2022-09-21T18:30:08.633Z,10.26
2022-09-21T18:38:50.433Z,10.21
2022-09-21T18:47:13.130Z,10.20
2022-09-21T18:55:37.455Z,10.14
2022-09-21T19:04:01.358Z,10.10
2022-09-21T19:12:46.052Z,10.13
2022-09-21T19:21:29.567Z,10.09
2022-09-21T19:30:04.858Z,10.05
2022-09-21T19:38:30.960Z,10.00
2022-09-21T19:47:43.168Z,9.90
2022-09-21T19:56:31.405Z,9.77
2022-09-21T20:05:05.148Z,9.62
2022-09-21T20:13:32.071Z,9.46
2022-09-21T20:22:19.867Z,9.33
2022-09-21T20:30:44.472Z,9.28
2022-09-21T20:39:07.428Z,9.24
2022-09-21T20:47:30.378Z,9.21
2022-09-21T20:55:56.070Z,9.22
2022-09-21T21:04:19.237Z,9.18
2022-09-21T21:12:43.210Z,9.14
2022-09-21T21:21:06.647Z,9.16
2022-09-21T21:29:30.721Z,9.13
2022-09-21T21:37:53.503Z,9.11
2022-09-21T21:46:16.476Z,9.20
2022-09-21T21:54:39.497Z,9.18
2022-09-21T22:03:02.941Z,9.18
2022-09-21T22:11:27.946Z,9.20
2022-09-21T22:19:51.477Z,9.21
2022-09-21T22:28:14.285Z,9.21
2022-09-21T22:36:37.668Z,9.23
2022-09-21T22:45:00.538Z,9.18
2022-09-21T22:53:26.033Z,9.13
2022-09-21T23:01:48.977Z,9.04
2022-09-21T23:10:12.673Z,8.95
2022-09-21T23:18:35.624Z,8.91
2022-09-21T23:26:58.454Z,8.90
2022-09-21T23:35:21.553Z,8.81
2022-09-21T23:43:46.042Z,8.75
2022-09-21T23:52:09.705Z,8.77
